Wan Hai 515 — 9V7581 — position and weather

sailwx.info

Track history (hours):
 
Tides and Currents Weather Stations Pressure Air Temp Water Temp Dewpoint Dewpoint Depression Visibility Wind Speed Wind Dir Waves Ship Positions

Wan Hai 515

Last reported at 2018-Feb-12 21:49 UTC. Time now 2018-Feb-24 04:32 UTC.
Position N 22°20' E 114°07'.
Warning: this ship's position is 11 days out of date.

Length 259 m; draft 10.4 m.

Type: Cargo ship. MMSI: 566828000.

Date/timePositionNaut miles runAvg speedWind from/ knotsBaromVisibWave heightAir tempDewpointWater temp
2018-Feb-12 21:49N 22°20' E 114°07'31912.2
2018-Feb-11 19:36N 22°30' E 119°52'113.5
2018-Feb-11 19:30N 22°30' E 119°53'5 9.9
2018-Feb-11 19:00N 22°31' E 119°59'510.6
2018-Feb-11 18:30N 22°32' E 120°04'611.2
2018-Feb-11 18:00N 22°32' E 120°10'611.3
2018-Feb-11 17:30N 22°33' E 120°16'3 5.3
2018-Feb-11 17:00N 22°33' E 120°19'1 1.8
2018-Feb-11 16:29N 22°34' E 120°19'0 0.0
2018-Feb-11 15:59N 22°34' E 120°19'0 0.0
2018-Feb-11 15:29N 22°34' E 120°19'0 0.0
2018-Feb-11 14:59N 22°34' E 120°19'0 0.0
2018-Feb-11 14:29N 22°34' E 120°19'0 0.0
2018-Feb-11 13:59N 22°34' E 120°19'0 0.0
2018-Feb-11 13:29N 22°34' E 120°19'0 0.0
2018-Feb-11 12:59N 22°34' E 120°19'0 0.0
2018-Feb-11 12:29N 22°34' E 120°19'0 0.0
2018-Feb-11 11:59N 22°34' E 120°19'0 0.0
2018-Feb-11 11:29N 22°34' E 120°19'0 0.0
2018-Feb-11 10:59N 22°34' E 120°19'0 0.0
2018-Feb-11 10:29N 22°34' E 120°19'0 0.0
2018-Feb-11 09:59N 22°34' E 120°19'0 0.0
2018-Feb-11 09:29N 22°34' E 120°19'0 0.8
2018-Feb-11 09:00N 22°34' E 120°19'2 4.3
2018-Feb-11 08:30N 22°33' E 120°17'1 2.8
2018-Feb-11 08:01N 22°32' E 120°15'2 5.0
2018-Feb-11 07:30N 22°32' E 120°13'4 7.2
2018-Feb-11 07:00N 22°35' E 120°11'4 8.3
2018-Feb-11 06:30N 22°39' E 120°10'3 6.2
2018-Feb-11 06:00N 22°42' E 120°08'2 4.1
2018-Feb-11 05:30N 22°43' E 120°07'510.5
2018-Feb-11 05:00N 22°48' E 120°04'611.1
2018-Feb-11 04:30N 22°52' E 120°01'612.2
2018-Feb-11 03:59N 22°58' E 119°57'817.5
2018-Feb-11 03:30N 23°06' E 119°54'1018.9
2018-Feb-11 03:00N 23°16' E 119°53'919.2
2018-Feb-11 02:30N 23°25' E 119°53'918.9
2018-Feb-11 02:00N 23°34' E 119°54'1119.1
2018-Feb-11 01:27N 23°45' E 119°55'818.4
2018-Feb-11 01:00N 23°53' E 119°57'8818.9
2018-Feb-10 20:21N 25°07' E 120°50'618.7
2018-Feb-10 20:00N 25°12' E 120°54'918.7
2018-Feb-10 19:31N 25°20' E 120°59'918.4
2018-Feb-10 19:00N 25°27' E 121°06'  
2018-Feb-08 01:29N 31°23' E 121°35'0 0.0
2018-Feb-08 00:59N 31°23' E 121°35'0 0.0
2018-Feb-08 00:29N 31°23' E 121°35'0 0.0
2018-Feb-07 23:53N 31°23' E 121°35'0 0.0
2018-Feb-07 23:23N 31°23' E 121°35'0 0.0
2018-Feb-07 23:00N 31°23' E 121°35'0 0.5
2018-Feb-07 22:30N 31°23' E 121°35'0 0.1
2018-Feb-07 21:58N 31°23' E 121°35'0 0.8
2018-Feb-07 21:30N 31°23' E 121°35'  
2018-Feb-03 15:57N 24°24' E 118°44'613.0
2018-Feb-03 15:30N 24°20' E 118°39'713.5
2018-Feb-03 14:59N 24°15' E 118°34'713.8
2018-Feb-03 14:28N 24°10' E 118°28'714.2
2018-Feb-03 13:59N 24°05' E 118°22'714.2
2018-Feb-03 13:31N 24°00' E 118°17'814.2
2018-Feb-03 12:58N 23°54' E 118°12'  
Track history (hours):
 
Tides and Currents Weather Stations Pressure Air Temp Water Temp Dewpoint Dewpoint Depression Visibility Wind Speed Wind Dir Waves Ship Positions

Wan Hai 515

Last reported at 2018-Feb-12 21:49 UTC. Time now 2018-Feb-24 04:32 UTC.
Position N 22°20' E 114°07'.
Warning: this ship's position is 11 days out of date.

Length 259 m; draft 10.4 m.

Type: Cargo ship. MMSI: 566828000.

Date/timePositionNaut miles runAvg speedWind from/ knotsBaromVisibWave heightAir tempDewpointWater temp
2018-Feb-12 21:49N 22°20' E 114°07'31912.2
2018-Feb-11 19:36N 22°30' E 119°52'113.5
2018-Feb-11 19:30N 22°30' E 119°53'5 9.9
2018-Feb-11 19:00N 22°31' E 119°59'510.6
2018-Feb-11 18:30N 22°32' E 120°04'611.2
2018-Feb-11 18:00N 22°32' E 120°10'611.3
2018-Feb-11 17:30N 22°33' E 120°16'3 5.3
2018-Feb-11 17:00N 22°33' E 120°19'1 1.8
2018-Feb-11 16:29N 22°34' E 120°19'0 0.0
2018-Feb-11 15:59N 22°34' E 120°19'0 0.0
2018-Feb-11 15:29N 22°34' E 120°19'0 0.0
2018-Feb-11 14:59N 22°34' E 120°19'0 0.0
2018-Feb-11 14:29N 22°34' E 120°19'0 0.0
2018-Feb-11 13:59N 22°34' E 120°19'0 0.0
2018-Feb-11 13:29N 22°34' E 120°19'0 0.0
2018-Feb-11 12:59N 22°34' E 120°19'0 0.0
2018-Feb-11 12:29N 22°34' E 120°19'0 0.0
2018-Feb-11 11:59N 22°34' E 120°19'0 0.0
2018-Feb-11 11:29N 22°34' E 120°19'0 0.0
2018-Feb-11 10:59N 22°34' E 120°19'0 0.0
2018-Feb-11 10:29N 22°34' E 120°19'0 0.0
2018-Feb-11 09:59N 22°34' E 120°19'0 0.0
2018-Feb-11 09:29N 22°34' E 120°19'0 0.8
2018-Feb-11 09:00N 22°34' E 120°19'2 4.3
2018-Feb-11 08:30N 22°33' E 120°17'1 2.8
2018-Feb-11 08:01N 22°32' E 120°15'2 5.0
2018-Feb-11 07:30N 22°32' E 120°13'4 7.2
2018-Feb-11 07:00N 22°35' E 120°11'4 8.3
2018-Feb-11 06:30N 22°39' E 120°10'3 6.2
2018-Feb-11 06:00N 22°42' E 120°08'2 4.1
2018-Feb-11 05:30N 22°43' E 120°07'510.5
2018-Feb-11 05:00N 22°48' E 120°04'611.1
2018-Feb-11 04:30N 22°52' E 120°01'612.2
2018-Feb-11 03:59N 22°58' E 119°57'817.5
2018-Feb-11 03:30N 23°06' E 119°54'1018.9
2018-Feb-11 03:00N 23°16' E 119°53'919.2
2018-Feb-11 02:30N 23°25' E 119°53'918.9
2018-Feb-11 02:00N 23°34' E 119°54'1119.1
2018-Feb-11 01:27N 23°45' E 119°55'818.4
2018-Feb-11 01:00N 23°53' E 119°57'8818.9
2018-Feb-10 20:21N 25°07' E 120°50'618.7
2018-Feb-10 20:00N 25°12' E 120°54'918.7
2018-Feb-10 19:31N 25°20' E 120°59'918.4
2018-Feb-10 19:00N 25°27' E 121°06'  
2018-Feb-08 01:29N 31°23' E 121°35'0 0.0
2018-Feb-08 00:59N 31°23' E 121°35'0 0.0
2018-Feb-08 00:29N 31°23' E 121°35'0 0.0
2018-Feb-07 23:53N 31°23' E 121°35'0 0.0
2018-Feb-07 23:23N 31°23' E 121°35'0 0.0
2018-Feb-07 23:00N 31°23' E 121°35'0 0.5
2018-Feb-07 22:30N 31°23' E 121°35'0 0.1
2018-Feb-07 21:58N 31°23' E 121°35'0 0.8
2018-Feb-07 21:30N 31°23' E 121°35'  
2018-Feb-03 15:57N 24°24' E 118°44'613.0
2018-Feb-03 15:30N 24°20' E 118°39'713.5
2018-Feb-03 14:59N 24°15' E 118°34'713.8
2018-Feb-03 14:28N 24°10' E 118°28'714.2
2018-Feb-03 13:59N 24°05' E 118°22'714.2
2018-Feb-03 13:31N 24°00' E 118°17'814.2
2018-Feb-03 12:58N 23°54' E 118°12'  

Dump ship's entire track history